Time;durP1;ratioP1;P1;durP2;ratioP2;P2;SDS_P1;SDS_P2;PMS_P1;PMS_P2;Temp;Humidity;BMP_temperature;BMP_pressure;BME280_temperature;BME280_humidity;BME280_pressure;Samples;Min_cycle;Max_cycle;Signal;HPM_P1;HPM_P2
2023/03/16 00:02:11;;;;;;;9.10;3.72;;;;;;;5.11;55.16;100181.16;5081379;28;20051;-77
2023/03/16 00:04:36;;;;;;;6.03;2.22;;;;;;;5.28;55.15;100182.50;5081195;28;20031;-80
2023/03/16 00:07:10;;;;;;;5.97;2.67;;;;;;;5.20;54.73;100178.19;5081111;28;20036;-79
2023/03/16 00:09:39;;;;;;;6.60;2.50;;;;;;;5.03;55.79;100167.91;5081857;28;20032;-79
2023/03/16 00:12:06;;;;;;;5.30;2.70;;;;;;;4.98;55.70;100176.66;5079964;28;20253;-78
2023/03/16 00:14:34;;;;;;;6.78;2.92;;;;;;;4.99;55.36;100170.22;5082347;28;20031;-79
2023/03/16 00:17:00;;;;;;;5.97;3.75;;;;;;;4.90;55.62;100168.84;5080829;28;20062;-78
2023/03/16 00:19:25;;;;;;;6.97;2.90;;;;;;;4.93;55.77;100160.28;5076414;28;20032;-79
2023/03/16 00:21:51;;;;;;;7.77;2.60;;;;;;;4.98;56.33;100162.34;5078922;28;20033;-79
2023/03/16 00:24:18;;;;;;;5.80;1.92;;;;;;;4.95;56.24;100166.28;5080064;28;20261;-79
2023/03/16 00:26:44;;;;;;;7.28;2.95;;;;;;;4.96;56.25;100162.56;5079053;28;20055;-79
2023/03/16 00:29:10;;;;;;;8.10;2.88;;;;;;;4.97;56.67;100169.59;5080618;28;20028;-79
2023/03/16 00:31:36;;;;;;;7.18;3.42;;;;;;;4.91;57.04;100170.47;5079419;28;20062;-80
2023/03/16 00:34:01;;;;;;;10.48;3.35;;;;;;;5.01;56.67;100165.44;5081353;28;20071;-79
2023/03/16 00:36:27;;;;;;;6.10;2.92;;;;;;;4.96;56.60;100159.88;5078267;28;20549;-81
2023/03/16 00:38:53;;;;;;;9.90;3.00;;;;;;;4.99;57.04;100159.41;5082478;28;20040;-80
2023/03/16 00:41:18;;;;;;;3.95;1.92;;;;;;;4.99;56.88;100162.13;5079807;28;20418;-79
2023/03/16 00:43:44;;;;;;;11.40;4.47;;;;;;;4.89;57.33;100156.34;5079464;28;20070;-80
2023/03/16 00:46:15;;;;;;;6.13;2.38;;;;;;;4.84;57.82;100162.41;5079327;28;20097;-79
2023/03/16 00:48:44;;;;;;;4.47;2.50;;;;;;;4.88;57.32;100168.22;5075642;28;20085;-80
2023/03/16 00:51:12;;;;;;;4.00;1.83;;;;;;;4.64;57.50;100160.63;5080904;28;20050;-78
2023/03/16 00:53:39;;;;;;;5.00;2.33;;;;;;;4.68;58.63;100161.03;5079457;28;20044;-80
2023/03/16 00:56:05;;;;;;;8.00;3.60;;;;;;;4.76;58.03;100168.88;5080771;28;20027;-79
2023/03/16 00:58:34;;;;;;;8.30;3.25;;;;;;;4.69;58.81;100168.09;5080451;28;20089;-80
2023/03/16 01:01:20;;;;;;;5.78;2.55;;;;;;;4.82;58.10;100156.38;5078097;28;20386;-79
2023/03/16 01:03:45;;;;;;;4.78;2.65;;;;;;;4.78;57.60;100155.16;5082460;28;20040;-79
2023/03/16 01:06:13;;;;;;;4.90;2.67;;;;;;;4.77;58.11;100153.50;5079696;28;20084;-79
2023/03/16 01:08:39;;;;;;;7.72;3.05;;;;;;;4.71;58.01;100166.03;5075796;28;20108;-80
2023/03/16 01:11:10;;;;;;;9.73;4.32;;;;;;;4.90;57.64;100171.53;5079782;28;20085;-80
2023/03/16 01:13:36;;;;;;;9.65;2.33;;;;;;;4.78;57.91;100176.78;5080235;28;20047;-80
2023/03/16 01:16:02;;;;;;;6.03;2.50;;;;;;;4.92;57.61;100172.16;5078095;28;20035;-79
2023/03/16 01:18:33;;;;;;;4.65;1.88;;;;;;;4.84;57.42;100172.41;5077582;28;20212;-81
2023/03/16 01:21:04;;;;;;;6.35;2.58;;;;;;;4.75;57.47;100150.19;5078730;28;20058;-80
2023/03/16 01:23:30;;;;;;;6.05;3.28;;;;;;;4.62;58.19;100145.69;5081741;28;20635;-79
2023/03/16 01:25:55;;;;;;;7.38;3.33;;;;;;;4.69;57.57;100141.09;5080010;28;20027;-80
2023/03/16 01:28:23;;;;;;;8.60;3.05;;;;;;;4.72;57.58;100142.53;5077046;28;20035;-80
2023/03/16 01:30:52;;;;;;;6.20;2.35;;;;;;;4.70;58.05;100137.34;5078829;28;20024;-80
2023/03/16 01:33:18;;;;;;;5.93;3.28;;;;;;;4.62;57.25;100137.59;5079744;28;20092;-79
2023/03/16 01:36:01;;;;;;;7.72;2.67;;;;;;;4.79;57.52;100132.50;5081824;28;20028;-79
2023/03/16 01:38:27;;;;;;;4.85;2.03;;;;;;;4.81;57.31;100137.69;5074874;28;20043;-79
2023/03/16 01:40:53;;;;;;;5.70;2.72;;;;;;;4.77;56.79;100126.50;5081262;28;20032;-79
2023/03/16 01:43:21;;;;;;;5.75;2.42;;;;;;;4.72;57.12;100124.44;5079585;28;20035;-79
2023/03/16 01:46:04;;;;;;;6.40;3.20;;;;;;;4.70;57.18;100125.72;5079264;28;20028;-79
2023/03/16 01:48:37;;;;;;;11.15;3.33;;;;;;;4.71;57.01;100112.00;5077521;28;20123;-79
2023/03/16 01:51:16;;;;;;;9.37;2.97;;;;;;;4.64;57.52;100105.78;5077002;28;20040;-79
2023/03/16 01:53:45;;;;;;;9.00;2.28;;;;;;;4.67;57.64;100098.09;5079076;28;20032;-78
2023/03/16 01:56:14;;;;;;;4.07;1.90;;;;;;;4.70;57.43;100093.31;5081550;28;20055;-79
2023/03/16 01:58:42;;;;;;;7.70;2.10;;;;;;;4.64;57.26;100085.00;5079163;28;20123;-79
2023/03/16 02:01:08;;;;;;;8.25;2.30;;;;;;;4.59;56.88;100086.72;5079881;28;20411;-79
2023/03/16 02:03:33;;;;;;;4.88;2.85;;;;;;;4.47;57.08;100091.97;5078142;28;20080;-79
2023/03/16 02:06:13;;;;;;;8.00;2.10;;;;;;;4.47;57.82;100094.69;5079222;28;20051;-80
2023/03/16 02:08:41;;;;;;;7.95;3.65;;;;;;;4.60;56.68;100089.19;5076744;28;20043;-80
2023/03/16 02:11:08;;;;;;;5.43;2.60;;;;;;;4.59;56.68;100089.41;5077832;28;20038;-81
2023/03/16 02:13:35;;;;;;;9.07;2.30;;;;;;;4.68;56.86;100082.69;5077283;28;20393;-80
2023/03/16 02:16:04;;;;;;;7.35;2.50;;;;;;;4.67;56.19;100081.06;5077854;28;20092;-79
2023/03/16 02:18:30;;;;;;;9.20;3.00;;;;;;;4.68;56.27;100069.19;5075784;28;20086;-80
2023/03/16 02:21:06;;;;;;;5.43;1.88;;;;;;;4.65;56.16;100069.63;5076693;28;20027;-80
2023/03/16 02:23:31;;;;;;;5.03;3.08;;;;;;;4.71;55.67;100076.88;5081606;28;20122;-79
2023/03/16 02:26:22;;;;;;;5.53;2.20;;;;;;;4.58;55.44;100069.66;5081481;28;20477;-80
2023/03/16 02:29:09;;;;;;;3.45;1.55;;;;;;;4.75;55.32;100066.47;5081084;28;20194;-79
2023/03/16 02:31:35;;;;;;;3.42;1.65;;;;;;;4.79;55.67;100060.41;5081541;28;20032;-81
2023/03/16 02:34:00;;;;;;;4.90;2.22;;;;;;;4.63;54.95;100059.06;5078824;28;20054;-79
2023/03/16 02:36:28;;;;;;;5.45;2.42;;;;;;;4.66;55.42;100058.63;5080759;28;20152;-79
2023/03/16 02:38:53;;;;;;;3.90;1.80;;;;;;;4.77;55.27;100051.69;5078491;28;20035;-79
2023/03/16 02:41:20;;;;;;;4.30;2.07;;;;;;;4.71;55.04;100052.56;5080722;28;20035;-79
2023/03/16 02:43:57;;;;;;;6.13;2.25;;;;;;;4.63;55.26;100052.81;5079583;28;20339;-79
2023/03/16 02:46:25;;;;;;;4.28;1.63;;;;;;;4.81;54.96;100043.97;5084140;28;20068;-79
2023/03/16 02:49:01;;;;;;;6.10;1.88;;;;;;;4.81;55.32;100041.28;5083033;28;20047;-79
2023/03/16 02:51:27;;;;;;;5.20;2.33;;;;;;;4.92;55.07;100039.75;5083810;28;20036;-80
2023/03/16 02:53:53;;;;;;;4.20;1.90;;;;;;;4.82;54.39;100042.09;5081450;28;20036;-80
2023/03/16 02:56:18;;;;;;;5.83;1.83;;;;;;;4.87;54.78;100047.66;5085821;28;20039;-79
2023/03/16 02:58:43;;;;;;;6.57;2.47;;;;;;;4.87;54.43;100045.78;5080558;28;20265;-79
2023/03/16 03:01:08;;;;;;;7.07;2.17;;;;;;;4.87;54.96;100051.19;5082484;28;20033;-79
2023/03/16 03:03:34;;;;;;;5.07;1.90;;;;;;;4.81;54.91;100040.44;5083018;28;20265;-81
2023/03/16 03:06:00;;;;;;;5.25;2.10;;;;;;;4.81;55.05;100041.28;5085674;28;20034;-79
2023/03/16 03:08:26;;;;;;;6.47;2.50;;;;;;;4.93;55.07;100032.44;5084480;28;20086;-80
2023/03/16 03:10:51;;;;;;;5.57;2.03;;;;;;;4.81;55.18;100035.88;5081270;28;20448;-79
2023/03/16 03:13:16;;;;;;;6.72;2.70;;;;;;;4.82;55.23;100037.50;5082678;28;20033;-80
2023/03/16 03:15:42;;;;;;;4.60;1.60;;;;;;;4.94;54.79;100023.31;5082804;28;20043;-80
2023/03/16 03:18:07;;;;;;;7.30;1.90;;;;;;;4.86;55.45;100022.50;5079824;28;20396;-79
2023/03/16 03:20:33;;;;;;;8.05;3.30;;;;;;;4.86;55.22;100005.50;5083616;28;20066;-79
2023/03/16 03:22:59;;;;;;;7.25;2.60;;;;;;;4.93;55.22;100017.06;5080619;28;20377;-79
2023/03/16 03:25:24;;;;;;;7.80;2.60;;;;;;;5.02;54.92;100025.72;5081163;28;20025;-79
2023/03/16 03:27:50;;;;;;;6.27;2.80;;;;;;;5.04;54.71;100023.63;5079364;28;20602;-80
2023/03/16 03:30:18;;;;;;;4.60;1.92;;;;;;;4.94;55.30;100032.25;5081109;28;20273;-78
2023/03/16 03:32:44;;;;;;;7.00;2.63;;;;;;;4.88;54.88;100025.00;5081334;28;20047;-80
2023/03/16 03:35:13;;;;;;;5.18;1.42;;;;;;;4.85;55.17;100020.03;5081667;28;20024;-80
2023/03/16 03:37:39;;;;;;;6.78;2.78;;;;;;;4.86;55.15;100010.91;5079891;28;20443;-79
2023/03/16 03:40:06;;;;;;;5.07;2.05;;;;;;;4.88;55.18;100008.81;5084507;28;20032;-80
2023/03/16 03:42:31;;;;;;;6.35;1.83;;;;;;;4.85;55.91;100014.63;5085048;28;20385;-78
2023/03/16 03:44:56;;;;;;;5.33;2.23;;;;;;;4.74;55.07;100006.19;5080553;28;20035;-79
2023/03/16 03:47:21;;;;;;;8.03;2.10;;;;;;;4.90;55.15;100002.09;5080464;28;20754;-78
2023/03/16 03:49:47;;;;;;;8.13;3.17;;;;;;;4.91;54.86;100005.66;5084056;28;20257;-79
2023/03/16 03:52:12;;;;;;;7.63;1.60;;;;;;;4.84;55.20;100005.69;5083830;28;20257;-79
2023/03/16 03:54:37;;;;;;;5.83;1.90;;;;;;;4.76;55.20;100017.59;5078172;28;20504;-79
2023/03/16 03:57:03;;;;;;;5.90;2.60;;;;;;;4.73;55.50;100018.06;5079780;28;20265;-79
2023/03/16 03:59:29;;;;;;;4.07;1.92;;;;;;;4.83;55.25;100011.31;5081580;28;20306;-79
2023/03/16 04:01:54;;;;;;;4.82;1.73;;;;;;;4.85;55.12;100012.75;5081230;28;20035;-80
2023/03/16 04:04:20;;;;;;;5.72;1.73;;;;;;;4.90;54.83;100004.81;5081494;28;20031;-78
2023/03/16 04:06:46;;;;;;;4.07;1.70;;;;;;;4.99;54.71;99999.97;5079050;28;20059;-78
2023/03/16 04:09:11;;;;;;;2.15;1.13;;;;;;;4.97;54.93;100002.06;5082503;28;20043;-79
2023/03/16 04:11:37;;;;;;;4.38;1.70;;;;;;;5.01;55.06;99997.03;5082402;28;20036;-79
2023/03/16 04:14:03;;;;;;;4.03;1.58;;;;;;;4.79;55.16;99990.16;5082092;28;20032;-79
2023/03/16 04:16:29;;;;;;;7.50;3.05;;;;;;;4.86;55.44;99990.09;5080517;28;20496;-79
2023/03/16 04:18:55;;;;;;;4.57;2.25;;;;;;;4.93;55.36;99987.34;5078252;28;20115;-78
2023/03/16 04:21:21;;;;;;;8.30;1.88;;;;;;;4.88;55.72;99988.00;5081330;28;20024;-79
2023/03/16 04:23:47;;;;;;;3.45;1.35;;;;;;;4.83;55.21;99982.44;5081627;28;20560;-79
2023/03/16 04:26:12;;;;;;;7.32;1.77;;;;;;;4.72;55.83;99972.38;5078526;28;20036;-78
2023/03/16 04:28:38;;;;;;;4.30;1.98;;;;;;;4.74;55.53;99965.66;5082758;28;20099;-79
2023/03/16 04:31:08;;;;;;;5.05;1.38;;;;;;;4.84;55.95;99970.56;5083729;28;20032;-79
2023/03/16 04:33:34;;;;;;;5.82;2.40;;;;;;;4.91;55.59;99951.59;5078929;28;20040;-79
2023/03/16 04:36:01;;;;;;;3.67;1.45;;;;;;;4.91;55.95;99948.91;5083164;28;20489;-79
2023/03/16 04:38:28;;;;;;;3.45;1.73;;;;;;;4.91;55.70;99954.31;5081951;28;20035;-80
2023/03/16 04:40:53;;;;;;;7.63;3.10;;;;;;;4.76;56.13;99944.66;5080188;28;20043;-78
2023/03/16 04:43:19;;;;;;;4.53;1.48;;;;;;;4.64;56.08;99943.72;5078847;28;20063;-78
2023/03/16 04:45:44;;;;;;;5.78;1.80;;;;;;;4.77;56.38;99943.63;5081608;28;20039;-79
2023/03/16 04:48:09;;;;;;;4.10;1.80;;;;;;;4.80;56.77;99934.25;5079615;28;20036;-79
2023/03/16 04:50:35;;;;;;;9.93;1.90;;;;;;;4.85;56.97;99944.38;5081743;28;20322;-79
2023/03/16 04:53:00;;;;;;;6.78;2.13;;;;;;;4.52;56.99;99936.34;5082676;28;20036;-79
2023/03/16 04:55:26;;;;;;;8.57;2.40;;;;;;;4.61;56.78;99936.06;5082175;28;20067;-78
2023/03/16 04:57:51;;;;;;;5.43;2.08;;;;;;;4.54;57.46;99939.66;5083300;28;20038;-79
2023/03/16 05:00:19;;;;;;;5.50;2.38;;;;;;;4.49;57.90;99936.81;5081254;28;20032;-80
2023/03/16 05:02:46;;;;;;;9.18;2.20;;;;;;;4.60;57.16;99946.06;5080861;28;20040;-79
2023/03/16 05:05:11;;;;;;;4.97;2.10;;;;;;;4.63;57.82;99942.09;5079245;28;20514;-79
2023/03/16 05:07:38;;;;;;;6.70;2.63;;;;;;;4.61;57.14;99933.38;5078329;28;20107;-79
2023/03/16 05:10:03;;;;;;;6.43;2.58;;;;;;;4.69;57.81;99930.41;5079197;28;20024;-80
2023/03/16 05:12:28;;;;;;;6.03;2.53;;;;;;;4.62;57.46;99935.03;5078357;28;20103;-79
2023/03/16 05:14:54;;;;;;;5.78;2.35;;;;;;;4.62;58.19;99945.81;5080246;28;20046;-79
2023/03/16 05:17:19;;;;;;;7.80;3.45;;;;;;;4.64;58.22;99936.47;5078246;28;20024;-80
2023/03/16 05:19:44;;;;;;;8.70;4.45;;;;;;;4.84;57.57;99935.44;5077771;28;20397;-79
2023/03/16 05:22:10;;;;;;;22.52;5.05;;;;;;;4.86;57.88;99929.84;5080284;28;20036;-78
2023/03/16 05:24:36;;;;;;;5.97;2.97;;;;;;;4.82;58.03;99934.84;5079576;28;20064;-79
2023/03/16 05:27:02;;;;;;;8.55;3.45;;;;;;;4.68;58.65;99928.72;5078895;28;20469;-79
2023/03/16 05:29:30;;;;;;;6.28;3.08;;;;;;;4.63;58.62;99917.78;5080220;28;20037;-79
2023/03/16 05:31:55;;;;;;;7.75;3.10;;;;;;;4.61;58.62;99919.88;5081912;28;20028;-79
2023/03/16 05:34:20;;;;;;;6.68;2.60;;;;;;;4.62;58.77;99924.22;5081039;28;20488;-79
2023/03/16 05:36:46;;;;;;;8.40;2.50;;;;;;;4.72;58.42;99919.16;5079635;28;20078;-79
2023/03/16 05:39:12;;;;;;;6.97;2.90;;;;;;;4.65;57.93;99913.00;5076652;28;20805;-79
2023/03/16 05:41:37;;;;;;;6.70;3.25;;;;;;;4.71;58.60;99922.91;5082197;28;20268;-79
2023/03/16 05:44:03;;;;;;;11.18;3.55;;;;;;;4.74;58.23;99930.56;5077018;28;20089;-79
2023/03/16 05:46:28;;;;;;;8.30;3.70;;;;;;;4.88;57.63;99935.84;5080032;28;20053;-79
2023/03/16 05:48:53;;;;;;;10.23;4.55;;;;;;;4.76;58.00;99938.47;5077740;28;20071;-80
2023/03/16 05:51:19;;;;;;;6.23;3.40;;;;;;;4.83;58.00;99924.88;5080760;28;20044;-79
2023/03/16 05:53:45;;;;;;;10.65;4.15;;;;;;;4.78;57.58;99934.47;5078922;28;20253;-80
2023/03/16 05:56:11;;;;;;;10.13;3.70;;;;;;;4.73;57.98;99942.41;5079828;28;20081;-79
2023/03/16 05:58:36;;;;;;;6.40;3.47;;;;;;;4.87;57.91;99947.69;5077883;28;20474;-79
2023/03/16 06:01:01;;;;;;;9.57;4.20;;;;;;;4.84;58.08;99948.16;5078469;28;20131;-80
2023/03/16 06:03:27;;;;;;;9.00;3.83;;;;;;;4.78;57.40;99936.34;5079862;28;20036;-80
2023/03/16 06:05:52;;;;;;;8.90;3.80;;;;;;;4.83;58.50;99941.06;5079307;28;20093;-78
2023/03/16 06:08:18;;;;;;;6.68;3.03;;;;;;;4.81;57.46;99943.19;5077970;28;20028;-80
2023/03/16 06:10:46;;;;;;;12.02;3.30;;;;;;;4.93;58.27;99952.22;5079162;28;20027;-79
2023/03/16 06:13:11;;;;;;;12.25;4.85;;;;;;;4.84;58.27;99948.97;5081827;28;20034;-78
2023/03/16 06:15:37;;;;;;;7.47;3.43;;;;;;;4.89;57.71;99935.63;5078218;28;20654;-79
2023/03/16 06:18:02;;;;;;;8.82;3.38;;;;;;;4.75;58.38;99945.72;5080259;28;20261;-78
2023/03/16 06:20:27;;;;;;;6.38;2.92;;;;;;;4.83;57.82;99946.47;5079109;28;20032;-78
2023/03/16 06:22:53;;;;;;;11.40;4.80;;;;;;;4.83;57.73;99947.31;5079826;28;20027;-79
2023/03/16 06:25:18;;;;;;;8.25;3.28;;;;;;;4.82;57.89;99953.75;5081576;28;20028;-79
2023/03/16 06:27:43;;;;;;;6.20;3.13;;;;;;;4.99;58.04;99956.72;5074606;28;20534;-80
2023/03/16 06:30:11;;;;;;;6.20;2.33;;;;;;;5.02;57.38;99948.16;5077185;28;20036;-80
2023/03/16 06:32:36;;;;;;;7.72;4.00;;;;;;;4.94;57.83;99947.63;5077556;28;20249;-80
2023/03/16 06:35:03;;;;;;;13.57;3.80;;;;;;;4.96;57.76;99954.47;5078369;28;20481;-80
2023/03/16 06:37:29;;;;;;;7.78;3.03;;;;;;;4.91;57.58;99951.59;5076440;28;20036;-79
2023/03/16 06:39:54;;;;;;;9.98;3.53;;;;;;;5.04;57.43;99947.97;5077604;28;20035;-79
2023/03/16 06:42:19;;;;;;;9.15;3.38;;;;;;;4.99;57.87;99940.50;5076324;28;20143;-79
2023/03/16 06:44:45;;;;;;;7.45;4.00;;;;;;;4.94;57.89;99953.88;5075623;28;20036;-79
2023/03/16 06:47:10;;;;;;;13.17;3.57;;;;;;;5.01;57.82;99945.69;5074680;28;20059;-80
2023/03/16 06:49:36;;;;;;;7.28;2.80;;;;;;;4.94;58.12;99959.28;5076267;28;20634;-78
2023/03/16 06:52:02;;;;;;;8.60;3.40;;;;;;;5.12;58.08;99960.34;5078085;28;20020;-79
2023/03/16 06:54:27;;;;;;;8.90;2.80;;;;;;;5.16;57.69;99953.44;5079484;28;20039;-78
2023/03/16 06:56:52;;;;;;;11.25;3.75;;;;;;;5.20;57.73;99957.38;5076418;28;20032;-78
2023/03/16 06:59:18;;;;;;;8.13;3.20;;;;;;;5.36;57.59;99955.94;5080502;28;20066;-80
2023/03/16 07:01:43;;;;;;;8.57;4.03;;;;;;;5.32;57.15;99948.50;5079230;28;20257;-80
2023/03/16 07:04:09;;;;;;;6.88;3.55;;;;;;;5.37;56.44;99959.44;5079428;28;20599;-79
2023/03/16 07:06:34;;;;;;;8.05;3.58;;;;;;;5.43;56.95;99963.16;5080892;28;20361;-79
2023/03/16 07:09:00;;;;;;;6.93;3.58;;;;;;;5.29;56.45;99957.88;5078504;28;20032;-80
2023/03/16 07:11:25;;;;;;;7.10;3.10;;;;;;;5.21;56.52;99963.56;5080056;28;20044;-81
2023/03/16 07:13:51;;;;;;;12.93;3.80;;;;;;;5.36;57.07;99952.41;5078128;28;20061;-80
2023/03/16 07:16:16;;;;;;;7.57;3.38;;;;;;;5.34;56.61;99941.81;5079111;28;20054;-80
2023/03/16 07:18:43;;;;;;;6.07;2.35;;;;;;;5.31;57.42;99952.25;5075814;28;20093;-80
2023/03/16 07:21:08;;;;;;;9.73;5.13;;;;;;;5.34;56.56;99954.50;5077287;28;20456;-80
2023/03/16 07:23:34;;;;;;;7.53;3.88;;;;;;;5.41;56.32;99957.16;5076695;28;20028;-80
2023/03/16 07:25:59;;;;;;;6.70;3.30;;;;;;;5.40;56.41;99961.72;5077836;28;20397;-80
2023/03/16 07:28:27;;;;;;;7.47;2.65;;;;;;;5.52;56.90;99958.25;5075427;28;20257;-79
2023/03/16 07:30:53;;;;;;;7.97;4.28;;;;;;;5.73;55.77;99955.06;5078538;28;20165;-79
2023/03/16 07:33:19;;;;;;;4.53;2.30;;;;;;;5.67;56.26;99950.59;5084646;28;20119;-80
2023/03/16 07:35:47;;;;;;;8.05;3.55;;;;;;;5.42;55.76;99954.22;5084351;28;20256;-79
2023/03/16 07:38:12;;;;;;;6.38;2.72;;;;;;;5.48;55.98;99969.53;5085661;28;20891;-79
2023/03/16 07:40:39;;;;;;;5.40;2.42;;;;;;;5.69;56.54;99963.88;5081649;28;20040;-79
2023/03/16 07:43:04;;;;;;;6.70;2.60;;;;;;;5.70;56.14;99962.81;5079473;28;20036;-79
2023/03/16 07:45:30;;;;;;;6.85;3.28;;;;;;;5.73;56.14;99970.50;5083247;28;20032;-79
2023/03/16 07:47:55;;;;;;;5.20;2.58;;;;;;;5.84;55.68;99979.69;5079941;28;20430;-79
2023/03/16 07:50:21;;;;;;;6.43;3.15;;;;;;;5.94;55.65;99979.16;5081393;28;20093;-80
2023/03/16 07:52:46;;;;;;;9.93;3.20;;;;;;;5.98;54.85;99976.84;5079185;28;20063;-80
2023/03/16 07:55:12;;;;;;;6.85;2.88;;;;;;;6.00;55.03;99977.44;5077584;28;20043;-79
2023/03/16 07:57:41;;;;;;;5.93;2.50;;;;;;;5.98;54.64;99980.34;5077550;28;20037;-79
2023/03/16 08:00:08;;;;;;;8.13;2.88;;;;;;;6.01;54.99;99976.38;5081532;28;20543;-80
2023/03/16 08:02:33;;;;;;;7.03;3.13;;;;;;;6.24;55.00;99969.44;5081271;28;20067;-83
2023/03/16 08:04:58;;;;;;;6.95;4.18;;;;;;;6.12;54.68;99982.94;5081219;28;20060;-80
2023/03/16 08:07:24;;;;;;;4.68;2.40;;;;;;;6.23;53.97;99984.00;5079942;28;20031;-79
2023/03/16 08:09:50;;;;;;;5.78;3.45;;;;;;;6.11;55.69;99971.28;5079117;28;20150;-79
2023/03/16 08:12:16;;;;;;;8.20;4.28;;;;;;;6.24;55.21;99972.13;5081712;28;20031;-80
2023/03/16 08:14:43;;;;;;;8.68;3.30;;;;;;;6.30;54.82;99963.91;5080984;28;20483;-80
2023/03/16 08:17:09;;;;;;;5.10;2.90;;;;;;;6.37;54.37;99969.22;5080134;28;20072;-78
2023/03/16 08:19:34;;;;;;;7.43;3.60;;;;;;;6.50;54.25;99964.66;5079486;28;20094;-79
2023/03/16 08:22:02;;;;;;;6.73;3.33;;;;;;;6.60;53.91;99966.81;5079342;28;20492;-79
2023/03/16 08:24:29;;;;;;;5.13;3.05;;;;;;;6.62;54.11;99957.38;5080527;28;20338;-79
2023/03/16 08:26:56;;;;;;;6.53;3.60;;;;;;;6.41;54.36;99958.75;5080023;28;20093;-80
2023/03/16 08:29:22;;;;;;;8.27;3.47;;;;;;;6.50;54.33;99961.97;5075569;28;20042;-79
2023/03/16 08:31:47;;;;;;;7.05;2.70;;;;;;;6.47;54.00;99959.72;5078105;28;20028;-79
2023/03/16 08:34:12;;;;;;;6.77;3.57;;;;;;;6.53;54.77;99962.31;5078116;28;20036;-79
2023/03/16 08:36:38;;;;;;;5.77;2.70;;;;;;;6.62;54.05;99951.97;5077099;28;20745;-79
2023/03/16 08:39:04;;;;;;;6.10;2.72;;;;;;;6.65;53.82;99965.03;5078796;28;20319;-80
2023/03/16 08:41:31;;;;;;;8.68;3.40;;;;;;;6.60;54.00;99964.94;5079497;28;20032;-78
2023/03/16 08:43:57;;;;;;;7.43;3.92;;;;;;;6.51;53.83;99959.00;5077772;28;20048;-79
2023/03/16 08:46:23;;;;;;;7.38;3.20;;;;;;;6.48;54.45;99961.38;5079297;28;20572;-79
2023/03/16 08:48:49;;;;;;;10.98;4.43;;;;;;;6.51;53.87;99952.75;5078601;28;20032;-79
2023/03/16 08:51:14;;;;;;;8.60;3.88;;;;;;;6.66;53.54;99955.03;5079726;28;20461;-78
2023/03/16 08:53:39;;;;;;;7.90;3.42;;;;;;;6.60;53.68;99961.38;5079270;28;20067;-80
2023/03/16 08:56:07;;;;;;;8.27;3.60;;;;;;;6.59;53.53;99955.13;5079275;28;20040;-79
2023/03/16 08:58:34;;;;;;;6.78;3.33;;;;;;;6.63;53.49;99967.16;5074437;28;20083;-79
2023/03/16 09:01:04;;;;;;;7.57;3.95;;;;;;;6.79;54.06;99962.13;5077087;28;20052;-79
2023/03/16 09:03:31;;;;;;;5.78;2.30;;;;;;;6.79;53.78;99964.84;5079226;28;20039;-79
2023/03/16 09:06:05;;;;;;;5.75;2.90;;;;;;;6.75;53.12;99977.19;5078168;28;20500;-81
2023/03/16 09:08:31;;;;;;;8.45;3.78;;;;;;;6.59;53.80;99986.84;5078514;28;20035;-79
2023/03/16 09:11:06;;;;;;;7.95;3.05;;;;;;;6.70;53.67;99982.47;5079083;28;20446;-80
2023/03/16 09:13:32;;;;;;;9.43;3.80;;;;;;;6.72;53.78;99981.19;5079405;28;20031;-80
2023/03/16 09:15:58;;;;;;;12.50;3.67;;;;;;;6.78;53.85;99960.47;5078470;28;20024;-79
2023/03/16 09:18:25;;;;;;;7.40;3.13;;;;;;;6.72;53.34;99972.22;5078742;28;20078;-80
2023/03/16 09:20:51;;;;;;;7.20;2.63;;;;;;;6.59;53.92;99971.38;5078540;28;20051;-79
2023/03/16 09:23:17;;;;;;;7.05;3.30;;;;;;;6.62;54.83;99965.53;5078265;28;20031;-79
2023/03/16 09:25:43;;;;;;;6.93;3.08;;;;;;;6.68;54.25;99962.91;5078685;28;20065;-80
2023/03/16 09:28:08;;;;;;;7.25;3.70;;;;;;;6.64;54.40;99970.69;5077148;28;20068;-78
2023/03/16 09:30:33;;;;;;;10.27;3.83;;;;;;;6.80;54.78;99971.88;5078474;28;20542;-80
2023/03/16 09:32:59;;;;;;;8.05;4.00;;;;;;;6.79;54.11;99972.97;5078666;28;20036;-78
2023/03/16 09:35:25;;;;;;;8.43;4.17;;;;;;;6.73;54.17;99979.31;5079193;28;20082;-79
2023/03/16 09:37:51;;;;;;;9.50;5.07;;;;;;;6.85;53.84;99973.91;5079719;28;20350;-78
2023/03/16 09:40:23;;;;;;;7.13;3.58;;;;;;;6.93;54.17;99978.16;5077117;28;20081;-79
2023/03/16 09:43:31;;;;;;;8.68;4.18;;;;;;;7.06;53.67;99963.56;5076910;28;20032;-80
2023/03/16 09:46:09;;;;;;;7.43;3.42;;;;;;;7.05;53.65;99973.56;5069713;28;20043;-78
2023/03/16 09:48:37;;;;;;;7.18;3.42;;;;;;;7.23;53.53;99972.59;5075598;28;20028;-80
2023/03/16 09:51:05;;;;;;;6.18;3.40;;;;;;;7.45;53.42;99965.72;5077942;28;20125;-80
2023/03/16 09:53:34;;;;;;;7.07;3.53;;;;;;;7.60;53.36;99962.53;5077919;28;20107;-79
2023/03/16 09:56:03;;;;;;;7.85;3.10;;;;;;;7.65;53.08;99959.06;5077936;28;20035;-78
2023/03/16 09:58:31;;;;;;;6.10;2.78;;;;;;;7.80;52.56;99951.25;5076331;28;20047;-80
2023/03/16 10:01:25;;;;;;;7.35;3.67;;;;;;;7.71;52.73;99958.94;5074457;28;20454;-82
2023/03/16 10:04:10;;;;;;;8.50;4.20;;;;;;;8.03;52.23;99960.34;5077484;28;20040;-79
2023/03/16 10:06:51;;;;;;;7.10;3.70;;;;;;;7.94;52.17;99961.81;5076883;28;20349;-79
2023/03/16 10:09:31;;;;;;;7.40;4.10;;;;;;;8.03;51.88;99954.91;5078119;28;20135;-81
2023/03/16 10:12:00;;;;;;;6.60;2.95;;;;;;;8.19;52.08;99941.63;5077324;28;20020;-79
2023/03/16 10:14:36;;;;;;;9.23;3.70;;;;;;;8.34;52.46;99954.66;5077287;28;20025;-80
2023/03/16 10:17:16;;;;;;;6.93;3.35;;;;;;;8.24;51.93;99946.31;5078537;28;20036;-79
2023/03/16 10:20:00;;;;;;;7.00;3.40;;;;;;;8.11;52.43;99945.56;5076220;28;20044;-79
2023/03/16 10:22:29;;;;;;;6.95;3.22;;;;;;;8.33;51.88;99944.03;5076374;28;20050;-79
2023/03/16 10:25:32;;;;;;;9.32;3.00;;;;;;;8.25;52.27;99951.53;5077711;28;20043;-78
2023/03/16 10:27:58;;;;;;;5.13;2.92;;;;;;;8.59;52.12;99942.59;5075624;28;20062;-80
2023/03/16 10:30:27;;;;;;;8.43;3.88;;;;;;;8.64;51.99;99925.56;5077510;28;20048;-81
2023/03/16 10:32:59;;;;;;;6.50;2.78;;;;;;;8.83;51.57;99938.88;5076571;28;20028;-80
2023/03/16 10:35:45;;;;;;;7.78;3.08;;;;;;;8.89;51.19;99937.06;5078200;28;20028;-80
2023/03/16 10:38:47;;;;;;;10.13;3.40;;;;;;;8.77;51.47;99940.69;5076288;28;20381;-78
2023/03/16 10:41:21;;;;;;;7.20;2.97;;;;;;;8.73;51.56;99951.25;5054047;28;20110;-78
2023/03/16 10:43:50;;;;;;;7.18;3.33;;;;;;;8.70;52.59;99942.75;5073518;28;20097;-78
2023/03/16 10:46:16;;;;;;;6.60;2.90;;;;;;;8.56;52.01;99955.81;5076924;28;20056;-79
2023/03/16 10:48:49;;;;;;;9.07;3.33;;;;;;;8.49;52.27;99937.78;5077387;28;20066;-80
2023/03/16 10:51:24;;;;;;;9.57;3.00;;;;;;;8.58;52.41;99940.13;5076929;28;20064;-81
2023/03/16 10:53:50;;;;;;;9.98;4.00;;;;;;;8.55;53.04;99943.28;5076132;28;20099;-79
2023/03/16 10:56:24;;;;;;;8.48;3.45;;;;;;;8.56;52.56;99934.91;5076209;28;20028;-79
2023/03/16 10:58:50;;;;;;;7.38;3.05;;;;;;;8.63;52.57;99918.47;5076595;28;20070;-79
2023/03/16 11:01:27;;;;;;;4.47;1.95;;;;;;;8.67;52.56;99908.75;5076945;28;20035;-79
2023/03/16 11:03:55;;;;;;;7.05;2.83;;;;;;;8.73;52.72;99894.16;5077236;28;20040;-81
2023/03/16 11:06:29;;;;;;;7.45;3.35;;;;;;;8.66;52.92;99887.25;5078091;28;20564;-79
2023/03/16 11:09:01;;;;;;;6.63;2.97;;;;;;;8.36;53.25;99897.38;5078275;28;20879;-79
2023/03/16 11:11:29;;;;;;;4.88;2.20;;;;;;;8.45;53.53;99887.72;5078746;28;20044;-79
2023/03/16 11:14:00;;;;;;;7.43;2.08;;;;;;;8.49;53.96;99878.00;5078643;28;20036;-80
2023/03/16 11:16:39;;;;;;;5.78;2.03;;;;;;;8.68;53.83;99866.91;5078372;28;20036;-79
2023/03/16 11:19:20;;;;;;;6.43;2.10;;;;;;;8.64;53.04;99865.75;5076865;28;20028;-79
2023/03/16 11:22:11;;;;;;;5.88;2.90;;;;;;;8.55;52.73;99861.78;5077405;28;20173;-79
2023/03/16 11:24:56;;;;;;;4.72;2.00;;;;;;;8.78;53.54;99865.41;5078121;28;20068;-80
2023/03/16 11:27:32;;;;;;;5.82;2.40;;;;;;;8.90;52.96;99866.13;5078505;28;20074;-79
2023/03/16 11:30:15;;;;;;;5.20;1.50;;;;;;;8.95;53.01;99860.75;5079535;28;20534;-79
2023/03/16 11:32:45;;;;;;;5.20;2.42;;;;;;;9.11;52.44;99860.97;5078896;28;20031;-79
2023/03/16 11:35:17;;;;;;;4.78;1.95;;;;;;;9.07;52.39;99848.94;5079829;28;20103;-79
2023/03/16 11:37:52;;;;;;;4.60;2.03;;;;;;;9.17;51.81;99848.25;5077894;28;20036;-78
2023/03/16 11:40:27;;;;;;;9.77;2.25;;;;;;;9.08;51.85;99847.84;5077680;28;20553;-78
2023/03/16 11:43:16;;;;;;;3.58;2.00;;;;;;;9.30;51.61;99845.13;5079235;28;20040;-79
2023/03/16 11:46:16;;;;;;;8.88;2.35;;;;;;;9.54;50.93;99831.22;5078136;28;20054;-79